KFET/FET METAR and TAF weather

Enter ICAO airport designator
Station Type Date Time Source
KFET METAR 2019/09/20 09:35 UTC NOAA

KFET 200935Z AUTO 14006KT 10SM CLR 24/21 A2997 RMK AO2 T02350205


Station Type Date Time Source
KFET Decoded METAR 2019/09/20 09:35 UTC NOAA

Fremont Municipal Airport, NE, United States (KFET) 41-27N 096-31W
Sep 20, 2019 - 05:35 AM EDT / 2019.09.20 0935 UTC
Wind: from the SE (140 degrees) at 7 MPH (6 KT):0
Visibility: 10 mile(s):0
Sky conditions: clear
Temperature: 74.3 F (23.5 C)
Dew Point: 68.9 F (20.5 C)
Relative Humidity: 83%
Pressure (altimeter): 29.97 in. Hg (1014 hPa)
ob: KFET 200935Z AUTO 14006KT 10SM CLR 24/21 A2997 RMK AO2 T02350205
cycle: 9

Station Type Date Time Source
KFET TAF UTC NOAA

Error!

Example: see airport list